Airfield :
LOGIN :

Register | Disclaimer

   EN    FR    IT 

 










Legend :    VFR   Marginal VFR   IFR   Intensive IFR   Very Intensive IFR
Visi :
Ceiling :
>= 8 km
>= 3000ft
5 to 8 km
1000 to 3000 ft
1500m to 5 km
500 to 1000 ft
800 to 1500m
200 to 500 ft
< 800m
< 200 ft
Symbols :   Thunderstorms  Fog  Heavy snow  Heavy precipitations  Wind > 20 kt
SIGMETs :     Misc.  Thunderstorms  Icing  Turbulence  Mountain Waves  Volcanic Ashes






- Airport Elevation : 226 ft
- IATA code : BEX


EGUB - RAF Benson

CURRENT METAR :
  • 181050Z 36011KT 3500 +RA BKN007 BKN016 12/11 Q1013 TEMPO 6000 RA RMK YLO1 TEMPO GRN

EXPIRED METARs :
  • 181028Z 01012KT 3000 +RA BKN007 BKN015 12/11 Q1014 TEMPO 5000 RA RMK YLO1 TEMPO GRN
  • 181021Z 01013KT 5000 +RA BKN008 BKN015 12/11 Q1013 TEMPO 8000 RA RMK GRN TEMPO GRN
  • 180950Z 01013KT 7000 +RA BKN009 OVC015 13/12 Q1013 TEMPO 8000 RA RMK GRN TEMPO GRN
  • 180920Z 01013KT 6000 +RA BKN009 OVC015 13/12 Q1013 TEMPO 8000 RA RMK GRN TEMPO GRN
  • 180850Z 02014KT 9999 RA BKN009 OVC016 13/12 Q1014 TEMPO 6000 BKN005 RMK GRN TEMPO YLO1
  • 180819Z 01013KT 9999 RA BKN007 OVC015 14/13 Q1014 TEMPO 6000 BKN005 RMK GRN TEMPO YLO1

TAF TAF EGUB
Valid from the 18 at 09:00 until the 18 at 18:00 UTC


180726Z 1809/1818 01012KT 9999 -RA BKN008
TEMPO 1809/1818 6000 RA
PROB30
TEMPO 1809/1818 3000 +RA BKN005
PROB30
TEMPO 1809/1812 01015G25KT
TEMPO 1812/1818 35015G25KT
ATIS : +44 1491-837766 (x7524)



MET'MAP, your aeronautical weather chart ! - Copyright ORBIFLY December 2007 - Disclaimer

ORBIFLY MET'MAP TEAM :

Programming & Development : Alexandra Zaïnal
Concept & original design : Baudouin d'Aumeries
Assistance for programming : Marc-Olivier Méhu
Technical & hardware support : Manuel Goepfert

Contact : metmap@orbifly.com




SOURCES & CREDITS :

   NOAA